Weather at Mars Hill Airport

Public forecast

Using degrees Fahrenheit for public forecast. Weather courtesy of forecast.io.

Closest aviation weather report (METAR) to Mars Hill Airport

Closest report is Presque Isle International Airport, 12.0 nm (22.1 km) NW. Retrieved 2020/09/22 05:56 UTC (43 minutes ago):

KPQI 220556Z AUTO 00000KT 10SM CLR M02/M03 A3035 RMK AO2 SLP310 T10221033 10061 21022 58015

Closest aviation forecast (TAF) to Mars Hill Airport

Closest forecast is Presque Isle International Airport, 12.0 nm (22.1 km) NW. Retrieved 2020/09/22 06:22 UTC (17 minutes ago):

TAF KPQI 220520Z 2206/2306 00000KT P6SM SKC FM221200 00000KT P6SM SCT070 FM221800 02008KT P6SM BKN100 FM230100 02010KT P6SM VCSH BKN090 FM230500 36011KT P6SM VCSH OVC050 WS020/03040KT